Time;durP1;ratioP1;P1;durP2;ratioP2;P2;SDS_P1;SDS_P2;PMS_P1;PMS_P2;Temp;Humidity;BMP_temperature;BMP_pressure;BME280_temperature;BME280_humidity;BME280_pressure;Samples;Min_cycle;Max_cycle;Signal;HPM_P1;HPM_P2
2024/04/24 00:00:20;;;;;;;45.55;20.25;;;;;;;4.26;100.00;100390.48;4911112;57;1140546;-81
2024/04/24 00:05:27;;;;;;;52.07;22.93;;;;;;;4.21;100.00;100382.86;4933599;56;1140937;-85
2024/04/24 00:10:33;;;;;;;46.47;20.63;;;;;;;4.18;100.00;100383.02;4996958;57;1141137;-84
2024/04/24 00:15:38;;;;;;;33.10;15.70;;;;;;;4.12;100.00;100379.44;5009549;57;1140989;-81
2024/04/24 00:20:44;;;;;;;34.40;16.27;;;;;;;4.11;100.00;100368.12;5006545;57;1140697;-85
2024/04/24 00:25:50;;;;;;;39.60;18.47;;;;;;;4.15;100.00;100362.23;4929178;58;1140760;-81
2024/04/24 00:31:01;;;;;;;36.83;16.90;;;;;;;4.12;100.00;100348.03;5008245;57;1140854;-81
2024/04/24 00:36:07;;;;;;;34.20;18.20;;;;;;;4.08;100.00;100349.11;4931459;57;1146358;-81
2024/04/24 00:41:12;;;;;;;34.48;18.32;;;;;;;4.02;100.00;100346.34;4865124;58;1140964;-80
2024/04/24 00:46:21;;;;;;;36.08;19.70;;;;;;;3.98;100.00;100343.97;4917397;58;1140440;-88
2024/04/24 00:51:27;;;;;;;38.07;19.37;;;;;;;3.90;100.00;100336.55;4934094;58;1140788;-83
2024/04/24 00:56:33;;;;;;;48.77;22.37;;;;;;;3.88;100.00;100333.16;4930186;58;1140501;-84
2024/04/24 01:01:39;;;;;;;39.65;20.08;;;;;;;3.85;100.00;100321.08;4953292;57;1140654;-82
2024/04/24 01:06:46;;;;;;;33.47;17.60;;;;;;;3.88;100.00;100319.62;4933833;58;1140558;-84
2024/04/24 01:11:51;;;;;;;29.87;15.87;;;;;;;3.94;100.00;100311.07;5015866;56;1141119;-85
2024/04/24 01:16:59;;;;;;;27.20;14.43;;;;;;;3.95;100.00;100303.60;4963585;56;1140919;-83
2024/04/24 01:22:30;;;;;;;30.45;15.75;;;;;;;3.96;100.00;100294.83;4960061;57;1140560;-83
2024/04/24 01:27:35;;;;;;;20.68;13.05;;;;;;;3.95;100.00;100294.45;4939823;57;1140685;-82
2024/04/24 01:32:41;;;;;;;31.03;14.80;;;;;;;3.83;100.00;100290.23;4878543;57;1140694;-82
2024/04/24 01:37:46;;;;;;;23.38;14.07;;;;;;;3.70;100.00;100283.12;4880309;58;1140861;-82
2024/04/24 01:42:52;;;;;;;22.97;13.20;;;;;;;3.67;100.00;100281.97;4803532;58;1140703;-84
2024/04/24 01:47:58;;;;;;;27.20;13.90;;;;;;;3.74;100.00;100269.81;4884431;57;1140887;-82
2024/04/24 01:53:04;;;;;;;30.15;14.68;;;;;;;3.74;100.00;100269.81;4916566;57;1142850;-86
2024/04/24 01:58:09;;;;;;;27.17;15.57;;;;;;;3.75;100.00;100266.73;4900863;57;1141076;-84
2024/04/24 02:03:15;;;;;;;30.27;17.20;;;;;;;3.73;100.00;100268.12;4963594;57;1150494;-85
2024/04/24 02:08:21;;;;;;;30.37;16.20;;;;;;;3.73;100.00;100262.89;5065108;56;1141017;-82
2024/04/24 02:13:26;;;;;;;32.47;17.13;;;;;;;3.71;100.00;100254.73;4963723;57;1140931;-82
2024/04/24 02:18:32;;;;;;;27.97;15.17;;;;;;;3.64;100.00;100250.31;5036968;56;1140710;-83
2024/04/24 02:23:38;;;;;;;21.57;12.67;;;;;;;3.60;100.00;100240.94;4981328;57;1140724;-80
2024/04/24 02:28:44;;;;;;;31.33;15.27;;;;;;;3.65;100.00;100238.93;5024127;57;1140990;-81
2024/04/24 02:33:49;;;;;;;26.90;15.37;;;;;;;3.64;100.00;100223.32;5108222;56;1140770;-83
2024/04/24 02:38:55;;;;;;;29.32;16.10;;;;;;;3.64;100.00;100223.32;5024504;56;1141015;-82
2024/04/24 02:44:01;;;;;;;28.73;15.90;;;;;;;3.72;100.00;100227.66;5127735;56;1140658;-81
2024/04/24 02:49:06;;;;;;;30.77;14.10;;;;;;;3.74;100.00;100218.81;5108413;56;1140712;-84
2024/04/24 02:54:14;;;;;;;24.72;13.78;;;;;;;3.72;100.00;100211.50;5024117;56;1140590;-80
2024/04/24 02:59:20;;;;;;;22.62;12.98;;;;;;;3.68;100.00;100204.74;5044385;57;1140950;-82
2024/04/24 03:04:25;;;;;;;27.30;12.47;;;;;;;3.65;100.00;100204.94;5107938;56;1140854;-82
2024/04/24 03:09:31;;;;;;;21.83;12.00;;;;;;;3.73;100.00;100194.88;5023750;56;1143028;-79
2024/04/24 03:14:36;;;;;;;21.33;13.03;;;;;;;3.80;100.00;100190.17;5042715;56;1140738;-82
2024/04/24 03:19:42;;;;;;;21.77;14.17;;;;;;;3.80;100.00;100183.64;5020494;56;1140867;-80
2024/04/24 03:24:47;;;;;;;25.53;13.10;;;;;;;3.64;100.00;100178.40;4972027;56;1140779;-83
2024/04/24 03:29:53;;;;;;;26.70;14.93;;;;;;;3.60;100.00;100176.88;4951402;57;1140925;-81
2024/04/24 03:34:58;;;;;;;30.15;14.83;;;;;;;3.58;100.00;100168.72;5098270;57;1141159;-84
2024/04/24 03:40:04;;;;;;;38.57;16.40;;;;;;;3.51;100.00;100172.97;4933953;58;1141040;-80
2024/04/24 03:45:10;;;;;;;34.10;16.73;;;;;;;3.44;100.00;100160.33;5025076;56;1140778;-82
2024/04/24 03:50:16;;;;;;;41.63;17.30;;;;;;;3.38;100.00;100160.64;5044636;56;1140939;-87
2024/04/24 03:55:21;;;;;;;44.87;21.30;;;;;;;3.33;100.00;100145.23;5008195;56;1140746;-82
2024/04/24 04:00:27;;;;;;;50.17;22.00;;;;;;;3.33;100.00;100145.23;5019362;56;1140886;-79
2024/04/24 04:05:32;;;;;;;47.23;22.17;;;;;;;3.42;100.00;100146.48;5057904;56;1141060;-82
2024/04/24 04:10:38;;;;;;;54.03;24.77;;;;;;;3.39;100.00;100132.27;5103047;55;1140720;-86
2024/04/24 04:15:43;;;;;;;41.37;18.53;;;;;;;3.39;100.00;100128.35;4941979;57;1140766;-85
2024/04/24 04:20:49;;;;;;;47.23;20.40;;;;;;;3.44;100.00;100129.80;4945737;57;1141003;-84
2024/04/24 04:25:55;;;;;;;92.50;43.00;;;;;;;3.54;100.00;100132.74;4919876;57;1140771;-81
2024/04/24 04:31:00;;;;;;;69.33;35.67;;;;;;;3.62;100.00;100131.87;4896909;58;1140970;-82
2024/04/24 04:36:08;;;;;;;87.53;42.83;;;;;;;3.54;100.00;100124.91;4939281;57;1140978;-82
2024/04/24 04:41:13;;;;;;;74.90;36.35;;;;;;;3.52;100.00;100131.98;5028270;57;1140944;-79
2024/04/24 04:46:19;;;;;;;46.88;23.18;;;;;;;3.49;100.00;100123.02;4909212;58;1140696;-78
2024/04/24 04:51:24;;;;;;;39.37;20.47;;;;;;;3.45;100.00;100126.72;4943082;58;1140938;-80
2024/04/24 04:56:30;;;;;;;40.40;19.77;;;;;;;3.50;100.00;100119.48;4953951;58;1140603;-81
2024/04/24 05:01:35;;;;;;;45.33;17.57;;;;;;;3.59;100.00;100114.20;4939412;58;1140527;-82
2024/04/24 05:06:41;;;;;;;36.47;19.23;;;;;;;3.61;100.00;100113.19;4904425;58;1140742;-84
2024/04/24 05:11:48;;;;;;;42.47;20.93;;;;;;;3.71;100.00;100107.81;5012551;57;1140794;-81
2024/04/24 05:16:53;;;;;;;33.77;19.87;;;;;;;3.77;100.00;100100.95;4992509;57;1141054;-80
2024/04/24 05:21:59;;;;;;;34.23;19.23;;;;;;;3.79;100.00;100094.33;4950004;57;1140789;-80
2024/04/24 05:32:28;;;;;;;41.83;20.13;;;;;;;3.78;100.00;100080.87;4930287;57;1140930;-82
2024/04/24 05:37:34;;;;;;;30.87;17.80;;;;;;;3.81;100.00;100076.78;5002458;57;1141089;-83
2024/04/24 05:42:42;;;;;;;40.87;20.13;;;;;;;3.91;100.00;100069.23;4936851;58;1142824;-83
2024/04/24 05:47:48;;;;;;;34.65;20.85;;;;;;;4.03;100.00;100063.29;4943101;57;1140941;-77
2024/04/24 05:52:53;;;;;;;34.83;19.93;;;;;;;4.08;100.00;100054.72;4963393;57;1140949;-79
2024/04/24 05:57:59;;;;;;;28.70;17.23;;;;;;;4.10;100.00;100054.17;4955803;57;1140900;-77
2024/04/24 06:03:05;;;;;;;28.93;17.23;;;;;;;4.10;100.00;100048.94;4980450;58;1141210;-80
2024/04/24 06:08:10;;;;;;;28.33;15.30;;;;;;;4.11;100.00;100054.55;4931233;57;1141065;-80
2024/04/24 06:13:16;;;;;;;27.67;15.30;;;;;;;4.16;100.00;100057.25;4986211;57;1140879;-79
2024/04/24 06:18:21;;;;;;;34.83;16.77;;;;;;;4.21;100.00;100055.68;5061067;56;1140964;-78
2024/04/24 06:23:30;;;;;;;30.27;16.07;;;;;;;4.26;100.00;100049.72;5002939;57;1140701;-80
2024/04/24 06:28:37;;;;;;;29.73;17.40;;;;;;;4.36;100.00;100050.00;4962742;57;1141133;-80
2024/04/24 06:33:42;;;;;;;24.30;14.20;;;;;;;4.39;100.00;100051.14;5060455;57;1140849;-80
2024/04/24 06:38:48;;;;;;;29.53;15.83;;;;;;;4.44;100.00;100047.76;5042063;57;1140758;-81
2024/04/24 06:43:54;;;;;;;25.60;15.93;;;;;;;4.48;100.00;100048.80;4959615;57;1140816;-80
2024/04/24 06:49:00;;;;;;;24.57;13.83;;;;;;;4.57;100.00;100042.19;4880414;58;1140780;-80
2024/04/24 06:54:05;;;;;;;26.73;15.50;;;;;;;4.71;100.00;100041.34;4934433;58;1143160;-81
2024/04/24 06:59:11;;;;;;;29.80;17.43;;;;;;;4.83;100.00;100036.19;4957091;58;1140692;-82
2024/04/24 07:04:16;;;;;;;38.42;17.92;;;;;;;4.96;100.00;100033.64;5027845;57;1140995;-81
2024/04/24 07:09:22;;;;;;;28.03;16.67;;;;;;;5.10;100.00;100024.92;4997718;57;1150398;-80
2024/04/24 07:14:27;;;;;;;23.90;14.20;;;;;;;5.25;100.00;100026.57;4950151;57;1140626;-80
2024/04/24 07:19:33;;;;;;;22.23;13.13;;;;;;;5.33;100.00;100031.34;4955055;58;1140851;-81
2024/04/24 07:24:38;;;;;;;24.03;14.47;;;;;;;5.43;100.00;100031.96;5023296;57;1140984;-80
2024/04/24 07:29:44;;;;;;;23.57;14.93;;;;;;;5.58;100.00;100025.73;4956888;57;1140914;-80
2024/04/24 07:34:49;;;;;;;25.13;14.97;;;;;;;5.85;100.00;100009.95;4947776;57;1140752;-80
2024/04/24 07:39:55;;;;;;;18.24;13.84;;;;;;;6.31;100.00;100002.48;4956093;58;1140857;-80
2024/04/24 07:45:00;;;;;;;21.40;13.73;;;;;;;6.71;100.00;100006.33;5041100;57;1141006;-80
2024/04/24 07:50:07;;;;;;;18.85;12.40;;;;;;;7.06;100.00;99991.51;4947136;57;1141119;-80
2024/04/24 07:55:12;;;;;;;17.93;12.20;;;;;;;7.38;100.00;99989.67;4961479;57;1138739;-81
2024/04/24 08:00:18;;;;;;;19.77;12.95;;;;;;;7.73;100.00;99977.39;4935043;57;1138838;-81
2024/04/24 08:05:24;;;;;;;19.80;12.35;;;;;;;8.03;100.00;99974.73;4878678;58;1138914;-82
2024/04/24 08:10:30;;;;;;;23.60;11.40;;;;;;;8.28;100.00;99961.36;4910952;57;1138869;-80
2024/04/24 08:15:36;;;;;;;22.03;12.83;;;;;;;8.31;100.00;99963.76;5050002;57;1139030;-81
2024/04/24 08:20:41;;;;;;;10.53;8.07;;;;;;;8.41;100.00;99959.95;5030441;57;1138692;-81
2024/04/24 08:25:47;;;;;;;15.77;10.60;;;;;;;8.54;100.00;99958.07;5027128;56;1136609;-81
2024/04/24 08:30:53;;;;;;;16.97;10.60;;;;;;;8.66;100.00;99960.22;5021051;56;1138894;-81
2024/04/24 08:36:13;;;;;;;21.73;10.67;;;;;;;8.73;100.00;99956.97;5046000;57;1138989;-81
2024/04/24 08:41:15;;;;;;;15.67;9.30;;;;;;;8.76;100.00;99952.77;5020964;57;1138617;-80
2024/04/24 08:46:21;;;;;;;12.47;9.45;;;;;;;8.77;100.00;99949.18;5024793;57;1136688;-81
2024/04/24 08:51:28;;;;;;;18.52;9.65;;;;;;;8.73;100.00;99946.42;5077817;56;1136622;-80
2024/04/24 08:56:40;;;;;;;9.70;7.90;;;;;;;8.71;100.00;99947.49;5097847;56;1136488;-80
2024/04/24 09:01:51;;;;;;;15.33;8.13;;;;;;;8.82;100.00;99935.64;5077690;55;1134492;-81
2024/04/24 09:06:56;;;;;;;10.95;7.97;;;;;;;8.97;100.00;99921.71;5005373;57;1136668;-81
2024/04/24 09:12:07;;;;;;;14.47;9.70;;;;;;;9.13;100.00;99920.83;5050992;56;1136669;-81
2024/04/24 09:17:13;;;;;;;11.83;7.90;;;;;;;9.23;100.00;99920.43;5107557;56;1136549;-81
2024/04/24 09:22:20;;;;;;;15.77;8.43;;;;;;;9.28;99.74;99911.67;5157589;56;1136580;-81
2024/04/24 09:27:25;;;;;;;9.45;7.08;;;;;;;9.39;100.00;99914.73;4982184;57;1134766;-79
2024/04/24 09:32:31;;;;;;;15.45;7.75;;;;;;;9.55;100.00;99901.95;5038631;56;1134527;-80
2024/04/24 09:37:36;;;;;;;10.27;6.50;;;;;;;9.62;100.00;99901.80;5024506;56;1136793;-85
2024/04/24 09:42:42;;;;;;;10.53;8.13;;;;;;;9.60;99.76;99899.77;5027614;56;1136818;-85
2024/04/24 09:47:48;;;;;;;9.30;7.10;;;;;;;9.72;100.00;99899.22;5049390;56;1136632;-84
2024/04/24 09:52:53;;;;;;;7.50;6.13;;;;;;;9.77;100.00;99893.92;5056691;56;1136758;-81
2024/04/24 09:58:01;;;;;;;8.43;6.28;;;;;;;9.85;100.00;99887.49;5037920;56;1136767;-81
2024/04/24 10:03:10;;;;;;;10.13;7.17;;;;;;;9.96;100.00;99887.89;5077534;56;1136819;-80
2024/04/24 10:08:22;;;;;;;11.03;7.80;;;;;;;9.96;99.80;99885.25;5075154;56;1138492;-80
2024/04/24 10:13:31;;;;;;;18.47;7.67;;;;;;;9.96;96.46;99874.69;4982573;56;1136879;-80
2024/04/24 10:18:37;;;;;;;16.97;8.03;;;;;;;10.09;97.36;99871.83;5022769;57;1136716;-80
2024/04/24 10:23:44;;;;;;;11.17;7.67;;;;;;;10.05;97.74;99871.76;5089394;56;1138738;-81
2024/04/24 10:28:51;;;;;;;11.45;7.65;;;;;;;10.11;94.83;99862.80;5041124;56;1138708;-86
2024/04/24 10:33:57;;;;;;;15.93;6.93;;;;;;;10.12;94.40;99854.39;5020962;56;1138814;-84
2024/04/24 10:39:08;;;;;;;10.03;7.03;;;;;;;10.18;95.86;99854.75;5034882;56;1139050;-85
2024/04/24 10:44:14;;;;;;;12.63;7.90;;;;;;;10.38;95.92;99848.22;5014859;57;1138509;-87
2024/04/24 10:49:19;;;;;;;12.37;7.27;;;;;;;10.63;95.62;99846.41;5009341;57;1260222;-84
2024/04/24 10:54:33;;;;;;;7.42;6.12;;;;;;;10.79;92.83;99848.53;5065566;56;1138808;-85
2024/04/24 10:59:38;;;;;;;8.30;6.65;;;;;;;10.69;92.21;99839.27;4977244;57;1136562;-85
2024/04/24 11:04:45;;;;;;;12.80;7.67;;;;;;;10.53;87.75;99841.10;5099740;56;1136767;-81
2024/04/24 11:09:51;;;;;;;9.40;6.57;;;;;;;10.51;93.15;99835.59;5095349;56;1138656;-81
2024/04/24 11:14:56;;;;;;;10.67;7.40;;;;;;;10.79;94.00;99814.98;5033036;57;1136602;-80
2024/04/24 11:20:02;;;;;;;10.43;7.73;;;;;;;10.91;95.04;99811.71;5003965;57;1139043;-80
2024/04/24 11:25:12;;;;;;;8.05;7.22;;;;;;;11.12;90.31;99816.88;5031252;57;1138848;-80
2024/04/24 11:30:20;;;;;;;10.73;7.40;;;;;;;11.16;92.23;99815.11;5017385;57;1136666;-80
2024/04/24 11:35:27;;;;;;;9.78;7.65;;;;;;;11.37;95.20;99808.35;4936842;57;1139067;-81
2024/04/24 11:40:33;;;;;;;9.43;7.20;;;;;;;11.64;91.22;99804.46;4937431;57;1136530;-80
2024/04/24 11:45:39;;;;;;;12.23;8.20;;;;;;;11.79;81.17;99791.62;5032112;57;1136934;-82
2024/04/24 11:50:44;;;;;;;6.47;5.70;;;;;;;11.89;88.52;99794.27;4942286;57;1138593;-80
2024/04/24 11:55:52;;;;;;;8.43;6.87;;;;;;;12.10;89.18;99782.92;5013446;57;1136826;-81
2024/04/24 12:00:57;;;;;;;8.07;6.13;;;;;;;12.06;85.64;99780.25;4926244;57;1136615;-80
2024/04/24 12:06:04;;;;;;;7.03;6.27;;;;;;;11.90;83.63;99778.71;4948117;57;1136452;-82
2024/04/24 12:11:10;;;;;;;7.37;5.35;;;;;;;11.82;85.46;99775.45;4997554;56;1136717;-84
2024/04/24 12:16:21;;;;;;;9.07;6.40;;;;;;;11.73;84.05;99763.53;4943893;56;1136520;-81
2024/04/24 12:21:27;;;;;;;6.85;6.25;;;;;;;11.74;83.34;99760.75;4947820;57;1136886;-80
2024/04/24 12:26:32;;;;;;;10.27;6.90;;;;;;;11.90;84.35;99754.86;4935583;57;1136853;-80
2024/04/24 12:31:40;;;;;;;9.97;9.03;;;;;;;12.03;84.63;99749.22;5000198;56;1138478;-81
2024/04/24 12:36:46;;;;;;;6.90;6.07;;;;;;;12.04;82.71;99745.10;4996447;57;1136782;-80
2024/04/24 12:41:51;;;;;;;43.13;27.93;;;;;;;12.05;82.82;99740.14;5024855;57;1136443;-80
2024/04/24 12:46:57;;;;;;;147.60;128.20;;;;;;;12.09;80.93;99743.31;4997182;57;1141064;-80
2024/04/24 12:52:03;;;;;;;27.70;21.55;;;;;;;12.25;83.44;99732.41;5090010;56;1145192;-80
2024/04/24 12:57:08;;;;;;;8.50;6.20;;;;;;;12.48;81.60;99735.48;5100705;56;1141195;-79
2024/04/24 13:02:14;;;;;;;12.03;7.73;;;;;;;12.24;79.37;99728.58;5024808;57;1136627;-79
2024/04/24 13:07:19;;;;;;;11.43;7.10;;;;;;;12.25;82.30;99723.12;4959157;57;1138765;-79
2024/04/24 13:12:25;;;;;;;9.57;7.50;;;;;;;12.26;80.32;99715.52;4990656;56;1138925;-80
2024/04/24 13:17:30;;;;;;;7.57;5.70;;;;;;;12.29;80.96;99707.27;4944213;56;1145497;-79
2024/04/24 13:22:36;;;;;;;8.03;5.22;;;;;;;12.30;80.17;99707.61;4972786;55;1136792;-80
2024/04/24 13:27:41;;;;;;;6.28;5.15;;;;;;;12.20;77.49;99702.05;4950671;55;1136760;-79
2024/04/24 13:32:47;;;;;;;7.93;5.40;;;;;;;11.89;76.33;99700.20;5014392;57;1136580;-81
2024/04/24 13:37:52;;;;;;;9.73;5.87;;;;;;;11.76;77.55;99703.19;4991202;56;1136683;-81
2024/04/24 13:42:58;;;;;;;7.27;5.10;;;;;;;11.76;79.30;99698.38;5011995;57;1136690;-82
2024/04/24 13:48:04;;;;;;;9.90;7.00;;;;;;;11.84;80.48;99695.81;5021316;57;1136604;-80
2024/04/24 13:53:10;;;;;;;7.12;4.80;;;;;;;11.75;79.72;99685.59;4986734;57;1136848;-82
2024/04/24 13:58:16;;;;;;;10.17;6.17;;;;;;;11.78;78.96;99685.31;4898681;56;1136576;-83
2024/04/24 14:03:21;;;;;;;10.57;7.67;;;;;;;11.74;78.87;99679.12;4922847;58;1138831;-83
2024/04/24 14:08:27;;;;;;;11.93;7.20;;;;;;;11.84;80.89;99679.44;5047344;56;1138656;-82
2024/04/24 14:13:33;;;;;;;15.70;10.20;;;;;;;11.86;79.58;99660.74;5018980;57;1138429;-83
2024/04/24 14:18:38;;;;;;;34.92;17.73;;;;;;;11.87;79.54;99675.66;5069881;56;1141100;-81
2024/04/24 14:23:45;;;;;;;15.50;8.40;;;;;;;11.89;80.03;99667.91;4884917;57;1140630;-82
2024/04/24 14:28:50;;;;;;;23.50;12.33;;;;;;;11.85;77.53;99665.70;4903581;57;1138731;-84
2024/04/24 14:33:56;;;;;;;13.20;8.27;;;;;;;11.68;77.75;99665.95;4884314;57;1140713;-81
2024/04/24 14:39:01;;;;;;;10.40;7.17;;;;;;;11.64;78.33;99659.28;5015987;57;1138849;-80
2024/04/24 14:44:07;;;;;;;5.83;5.23;;;;;;;11.65;79.50;99663.59;5075470;55;1138697;-83
2024/04/24 14:49:13;;;;;;;12.47;7.23;;;;;;;11.70;79.38;99659.19;5101388;55;1136548;-82
2024/04/24 14:54:18;;;;;;;8.13;5.93;;;;;;;11.78;79.12;99652.19;5072841;55;1139044;-82
2024/04/24 14:59:24;;;;;;;9.07;6.77;;;;;;;11.72;77.54;99647.96;5054014;57;1137091;-82
2024/04/24 15:04:29;;;;;;;10.20;6.53;;;;;;;11.57;76.58;99642.32;4987918;56;1136779;-84
2024/04/24 15:09:37;;;;;;;10.97;6.53;;;;;;;11.60;78.59;99646.84;4954594;56;1138844;-83
2024/04/24 15:14:42;;;;;;;8.50;6.03;;;;;;;11.56;75.85;99645.45;5032892;57;1138673;-83
2024/04/24 15:19:48;;;;;;;11.80;6.87;;;;;;;11.52;76.79;99638.78;5091118;56;1136651;-83
2024/04/24 15:24:53;;;;;;;8.07;5.13;;;;;;;11.57;77.18;99629.08;4989448;56;1138863;-80
2024/04/24 15:29:59;;;;;;;5.63;5.00;;;;;;;11.55;76.76;99633.69;4869427;57;1136784;-81
2024/04/24 15:35:06;;;;;;;9.27;6.10;;;;;;;11.43;75.82;99635.70;4983026;57;1136529;-81
2024/04/24 15:40:12;;;;;;;6.50;5.00;;;;;;;11.39;75.73;99632.16;4925423;58;1136622;-84
2024/04/24 15:45:19;;;;;;;61.50;33.73;;;;;;;11.24;74.01;99630.47;5020946;56;1136633;-83
2024/04/24 15:50:27;;;;;;;26.37;14.27;;;;;;;11.13;74.82;99627.52;5041824;56;1140751;-82
2024/04/24 15:55:33;;;;;;;30.13;18.83;;;;;;;11.07;75.70;99621.47;5007738;57;1140743;-86
2024/04/24 16:00:38;;;;;;;25.62;16.52;;;;;;;11.10;76.44;99620.35;4988857;57;1140872;-83
2024/04/24 16:05:44;;;;;;;18.27;11.47;;;;;;;11.10;75.77;99621.19;5129284;57;1140559;-82
2024/04/24 16:10:49;;;;;;;8.70;5.13;;;;;;;11.11;76.62;99620.70;5078432;56;1140953;-82
2024/04/24 16:15:55;;;;;;;12.43;7.57;;;;;;;11.06;74.51;99614.99;5020981;57;1136530;-81
2024/04/24 16:21:00;;;;;;;18.98;9.43;;;;;;;10.96;74.45;99618.17;5001324;57;1139129;-81
2024/04/24 16:26:06;;;;;;;6.07;5.07;;;;;;;10.84;74.77;99611.73;5007949;57;1138888;-81
2024/04/24 16:31:12;;;;;;;18.63;10.73;;;;;;;10.79;75.30;99606.02;4888023;58;1136626;-84
2024/04/24 16:36:18;;;;;;;15.87;7.63;;;;;;;10.73;75.82;99605.26;4958027;58;1140677;-84
2024/04/24 16:41:24;;;;;;;12.80;7.30;;;;;;;10.66;75.69;99608.62;4997550;57;1138810;-82
2024/04/24 16:46:30;;;;;;;12.63;7.47;;;;;;;10.58;75.88;99603.55;4939745;57;1138729;-83
2024/04/24 16:51:39;;;;;;;19.37;7.90;;;;;;;10.58;77.49;99607.51;5005741;56;1138901;-81
2024/04/24 16:56:45;;;;;;;25.25;11.30;;;;;;;10.68;78.94;99603.55;4984120;57;1138497;-82
2024/04/24 17:01:50;;;;;;;27.17;11.87;;;;;;;10.74;79.41;99598.16;5039990;57;1140965;-83
2024/04/24 17:06:56;;;;;;;24.17;11.87;;;;;;;10.75;79.62;99600.66;4934311;58;1141112;-82
2024/04/24 17:12:02;;;;;;;15.58;9.35;;;;;;;10.71;79.77;99604.56;4963577;58;1140797;-83
2024/04/24 17:17:08;;;;;;;70.93;33.40;;;;;;;10.73;81.46;99597.81;4982835;58;1138343;-82
2024/04/24 17:22:13;;;;;;;64.80;29.97;;;;;;;10.69;81.03;99602.57;4963252;58;1140835;-82
2024/04/24 17:27:19;;;;;;;57.23;25.90;;;;;;;10.62;81.89;99606.75;5042986;57;1141053;-80
2024/04/24 17:32:31;;;;;;;60.53;26.13;;;;;;;10.62;83.03;99606.75;5063076;57;1141031;-80
2024/04/24 17:37:33;;;;;;;115.77;53.77;;;;;;;10.63;84.04;99598.33;5044737;57;1140645;-84
2024/04/24 17:42:39;;;;;;;112.37;54.23;;;;;;;10.63;84.73;99606.26;5039062;57;1142769;-80
2024/04/24 17:47:45;;;;;;;64.55;29.48;;;;;;;10.57;84.31;99610.29;4930329;57;1142976;-84
2024/04/24 17:52:50;;;;;;;62.90;28.23;;;;;;;10.34;84.36;99612.90;4883807;59;1140801;-81
2024/04/24 17:57:56;;;;;;;44.57;20.87;;;;;;;10.19;86.08;99609.84;4940360;58;1140806;-84
2024/04/24 18:03:01;;;;;;;30.35;13.78;;;;;;;10.04;86.01;99612.02;4963243;57;1140704;-83
2024/04/24 18:08:07;;;;;;;27.43;13.83;;;;;;;9.84;86.68;99619.08;4967749;58;1140985;-83
2024/04/24 18:13:19;;;;;;;65.97;30.00;;;;;;;9.81;88.80;99621.14;4961029;57;1138687;-81
2024/04/24 18:18:21;;;;;;;75.87;30.43;;;;;;;9.83;90.57;99624.48;5101690;56;1138735;-81
2024/04/24 18:23:26;;;;;;;83.73;39.90;;;;;;;9.82;91.33;99627.61;5115941;56;1136765;-83
2024/04/24 18:28:32;;;;;;;63.93;31.47;;;;;;;9.82;92.76;99631.58;5094854;56;1136817;-84
2024/04/24 18:33:39;;;;;;;86.72;36.35;;;;;;;9.80;93.24;99629.55;5119358;55;1136742;-79
2024/04/24 18:38:45;;;;;;;102.63;37.70;;;;;;;9.70;93.53;99633.98;5055165;57;1136725;-84
2024/04/24 18:43:52;;;;;;;90.37;33.67;;;;;;;9.59;94.22;99643.34;5034973;56;1138699;-83
2024/04/24 18:48:57;;;;;;;63.83;20.57;;;;;;;9.51;95.44;99640.52;5035477;56;1136711;-80
2024/04/24 18:54:03;;;;;;;75.67;30.10;;;;;;;9.43;96.04;99653.56;4993133;56;1136678;-83
2024/04/24 18:59:09;;;;;;;50.33;21.57;;;;;;;9.36;96.98;99649.28;4878239;58;1137087;-82
2024/04/24 19:04:16;;;;;;;97.47;29.93;;;;;;;9.26;97.99;99645.77;5053949;56;1136700;-81
2024/04/24 19:09:21;;;;;;;54.87;17.90;;;;;;;9.15;99.42;99643.23;5102721;56;1136579;-83
2024/04/24 19:14:27;;;;;;;49.70;16.13;;;;;;;9.04;100.00;99648.56;5141106;56;1136783;-84
2024/04/24 19:19:32;;;;;;;53.53;19.53;;;;;;;8.97;100.00;99650.06;4971668;57;1138946;-81
2024/04/24 19:24:38;;;;;;;344.87;117.93;;;;;;;8.99;100.00;99649.45;4923958;58;1138698;-82
2024/04/24 19:29:44;;;;;;;889.52;362.85;;;;;;;9.05;100.00;99644.96;5086868;56;1142632;-80
2024/04/24 19:34:50;;;;;;;1119.28;513.42;;;;;;;9.03;100.00;99638.98;5092285;56;1143190;-82
2024/04/24 19:39:55;;;;;;;288.97;106.73;;;;;;;9.02;100.00;99634.66;5094835;56;1144781;-82
2024/04/24 19:45:01;;;;;;;210.30;77.17;;;;;;;8.97;100.00;99636.88;5097513;56;1143054;-80
2024/04/24 19:50:08;;;;;;;115.17;46.93;;;;;;;8.98;100.00;99646.47;5158951;55;1140760;-83
2024/04/24 19:55:14;;;;;;;332.10;135.70;;;;;;;8.99;100.00;99646.82;5139440;56;1140533;-81
2024/04/24 20:00:24;;;;;;;396.20;211.57;;;;;;;9.10;100.00;99648.05;5100523;56;1142892;-83
2024/04/24 20:05:27;;;;;;;253.87;139.13;;;;;;;9.20;100.00;99646.77;5074171;56;1142826;-83
2024/04/24 20:10:32;;;;;;;208.53;118.63;;;;;;;9.24;100.00;99645.06;5053971;57;1143438;-82
2024/04/24 20:15:38;;;;;;;89.05;47.58;;;;;;;9.22;100.00;99642.20;5053970;56;1142862;-83
2024/04/24 20:20:43;;;;;;;31.70;19.73;;;;;;;9.24;100.00;99645.55;5074954;56;1138687;-79
2024/04/24 20:25:49;;;;;;;39.20;24.98;;;;;;;9.23;100.00;99651.79;5054931;56;1138592;-80
2024/04/24 20:30:54;;;;;;;45.10;22.67;;;;;;;9.20;100.00;99649.41;5054572;56;1138583;-79
2024/04/24 20:36:00;;;;;;;92.53;36.87;;;;;;;9.14;100.00;99645.03;5053723;56;1138689;-80
2024/04/24 20:41:07;;;;;;;99.90;40.73;;;;;;;9.15;100.00;99641.43;5071983;57;1139034;-79
2024/04/24 20:46:13;;;;;;;96.97;42.50;;;;;;;9.09;100.00;99643.26;5107796;56;1140596;-80
2024/04/24 20:51:19;;;;;;;97.40;40.57;;;;;;;9.10;100.00;99644.09;5139665;56;1140693;-79
2024/04/24 20:56:24;;;;;;;106.00;47.67;;;;;;;9.10;100.00;99642.78;5159044;56;1140961;-80
2024/04/24 21:01:30;;;;;;;154.57;67.55;;;;;;;8.93;100.00;99642.89;5073456;56;1143011;-80
2024/04/24 21:06:37;;;;;;;118.57;52.93;;;;;;;8.88;100.00;99649.50;5024730;57;1142607;-80
2024/04/24 21:11:42;;;;;;;88.40;42.03;;;;;;;8.92;100.00;99647.81;5044734;57;1142617;-79
2024/04/24 21:16:48;;;;;;;71.63;35.03;;;;;;;8.86;100.00;99645.67;5025034;57;1141113;-79
2024/04/24 21:21:53;;;;;;;108.40;48.93;;;;;;;8.86;100.00;99639.59;5025326;57;1138533;-80
2024/04/24 21:26:59;;;;;;;75.55;34.35;;;;;;;8.83;100.00;99643.33;5025384;57;1140691;-81
2024/04/24 21:32:05;;;;;;;77.37;40.10;;;;;;;8.83;100.00;99646.45;5044178;56;1138886;-79
2024/04/24 21:37:11;;;;;;;74.97;33.90;;;;;;;8.74;100.00;99648.88;5022783;56;1138869;-80
2024/04/24 21:42:16;;;;;;;86.10;37.70;;;;;;;8.67;100.00;99645.09;5025407;56;1138710;-79
2024/04/24 21:47:22;;;;;;;83.00;37.47;;;;;;;8.47;100.00;99644.59;5045493;57;1138929;-80
2024/04/24 21:52:27;;;;;;;96.03;40.93;;;;;;;8.41;100.00;99642.45;5025382;57;1141148;-80
2024/04/24 21:57:33;;;;;;;94.53;42.47;;;;;;;8.52;100.00;99638.46;5024900;57;1152114;-80
2024/04/24 22:02:38;;;;;;;182.00;70.43;;;;;;;8.70;100.00;99641.37;5045374;56;1140962;-80
2024/04/24 22:07:44;;;;;;;131.32;52.53;;;;;;;8.78;100.00;99634.47;5025080;57;1143162;-79
2024/04/24 22:12:49;;;;;;;91.42;39.95;;;;;;;8.73;100.00;99644.56;5025390;56;1142967;-81
2024/04/24 22:17:55;;;;;;;60.00;27.47;;;;;;;8.63;100.00;99638.40;5025909;57;1141105;-80
2024/04/24 22:23:01;;;;;;;59.20;25.60;;;;;;;8.33;100.00;99640.45;5044800;57;1141053;-80
2024/04/24 22:28:06;;;;;;;50.53;23.87;;;;;;;8.07;100.00;99641.25;5025767;56;1138816;-80
2024/04/24 22:33:12;;;;;;;43.00;23.80;;;;;;;8.11;100.00;99632.11;5025874;57;1138779;-79
2024/04/24 22:38:17;;;;;;;55.47;27.77;;;;;;;8.18;100.00;99632.46;5091148;56;1138518;-80
2024/04/24 22:43:23;;;;;;;65.33;29.23;;;;;;;8.23;100.00;99637.36;5108417;56;1140878;-80
2024/04/24 22:48:29;;;;;;;72.57;30.30;;;;;;;8.25;100.00;99629.66;5109394;56;1140635;-81
2024/04/24 22:53:36;;;;;;;59.58;29.08;;;;;;;8.32;100.00;99626.09;5147844;56;1141177;-80
2024/04/24 22:58:44;;;;;;;79.65;36.90;;;;;;;8.33;100.00;99627.77;5105983;56;1140730;-80